Ashbury, Pennsylvania
Current Conditions -  °F | °C
As of 3:15 AM on Thursday 18 Dec 2014 (Local Time) from KHZL Reporting Station
Overcast Overcast  
Wind Chill: 20°   Ceiling: 3300
Heat Index: 30°   Visibility: 10mi
Dew Point: 23°   Wind: 13mph
Humidity: 75%   Direction: 280°W
Pressure: 29.96"   Gusts: 22mph
Location:  41.1114°N, 76.3684°W
Report Text: KHZL 180815Z AUTO 28011G19KT 10SM OVC033 M01/M05 A2996 RMK AO2
Loading
Personal Weather Stations






























Interactive Weather Map New forecast layout! Learn more

10-Day Weather Forecast

Advertisements
Track Severe Weather on mobile